createdAt,value
2023-04-15T00:01:08.818Z,2.28
2023-04-15T00:03:36.478Z,2.59
2023-04-15T00:06:04.012Z,2.33
2023-04-15T00:08:32.290Z,2.47
2023-04-15T00:11:05.815Z,2.45
2023-04-15T00:13:34.305Z,2.65
2023-04-15T00:16:01.782Z,2.56
2023-04-15T00:18:30.122Z,2.44
2023-04-15T00:20:57.361Z,2.37
2023-04-15T00:23:44.121Z,2.32
2023-04-15T00:26:11.347Z,2.43
2023-04-15T00:28:38.771Z,2.38
2023-04-15T00:31:05.986Z,2.36
2023-04-15T00:33:33.542Z,2.04
2023-04-15T00:36:00.651Z,2.08
2023-04-15T00:38:28.231Z,2.20
2023-04-15T00:40:56.629Z,2.43
2023-04-15T00:43:23.819Z,2.32
2023-04-15T00:45:53.764Z,2.13
2023-04-15T00:48:21.011Z,2.07
2023-04-15T00:50:48.069Z,2.19
2023-04-15T00:53:15.126Z,2.17
2023-04-15T00:55:42.666Z,1.94
2023-04-15T00:58:09.862Z,1.90
2023-04-15T01:00:37.694Z,1.92
2023-04-15T01:03:04.905Z,1.99
2023-04-15T01:05:32.557Z,1.83
2023-04-15T01:07:59.672Z,1.93
2023-04-15T01:10:27.453Z,1.91
2023-04-15T01:12:54.955Z,1.82
2023-04-15T01:15:22.055Z,1.68
2023-04-15T01:17:49.580Z,1.71
2023-04-15T01:20:17.318Z,1.64
2023-04-15T01:22:45.319Z,1.73
2023-04-15T01:25:16.595Z,1.80
2023-04-15T01:27:43.794Z,1.84
2023-04-15T01:30:11.635Z,1.70
2023-04-15T01:32:38.952Z,1.68
2023-04-15T01:35:24.826Z,1.70
2023-04-15T01:37:52.709Z,1.67
2023-04-15T01:40:19.789Z,1.84
2023-04-15T01:42:48.155Z,1.78
2023-04-15T01:45:17.626Z,1.87
2023-04-15T01:47:46.027Z,1.99
2023-04-15T01:50:14.446Z,1.69
2023-04-15T01:52:43.526Z,1.72
2023-04-15T01:55:12.638Z,1.76
2023-04-15T01:57:41.263Z,1.37
2023-04-15T02:00:10.050Z,1.41
2023-04-15T02:02:44.960Z,1.28
2023-04-15T02:05:13.470Z,1.48
2023-04-15T02:07:43.640Z,1.28
2023-04-15T02:10:13.675Z,1.55
2023-04-15T02:12:42.265Z,1.26
2023-04-15T02:15:11.036Z,1.31
2023-04-15T02:17:39.463Z,1.47
2023-04-15T02:20:10.808Z,1.59
2023-04-15T02:22:39.305Z,1.50
2023-04-15T02:25:09.510Z,1.43
2023-04-15T02:27:38.484Z,1.52
2023-04-15T02:30:09.372Z,1.36
2023-04-15T02:32:38.425Z,1.41
2023-04-15T02:35:08.932Z,1.58
2023-04-15T02:37:43.579Z,1.38
2023-04-15T02:40:13.538Z,1.47
2023-04-15T02:42:43.039Z,1.29
2023-04-15T02:45:14.288Z,1.73
2023-04-15T02:47:44.588Z,1.70
2023-04-15T02:50:14.157Z,1.79
2023-04-15T02:52:44.739Z,1.95
2023-04-15T02:55:13.425Z,1.39
2023-04-15T02:57:42.049Z,1.61
2023-04-15T03:00:12.660Z,1.64
2023-04-15T03:02:44.813Z,1.53
2023-04-15T03:05:14.639Z,1.63
2023-04-15T03:07:52.088Z,1.54
2023-04-15T03:10:21.527Z,1.18
2023-04-15T03:12:50.100Z,1.28
2023-04-15T03:15:21.384Z,1.28
2023-04-15T03:17:53.351Z,1.39
2023-04-15T03:20:21.884Z,1.26
2023-04-15T03:22:50.662Z,1.40
2023-04-15T03:25:21.149Z,1.49
2023-04-15T03:27:49.518Z,1.41
2023-04-15T03:30:18.737Z,1.65
2023-04-15T03:32:47.715Z,1.33
2023-04-15T03:35:16.606Z,1.64
2023-04-15T03:37:45.032Z,1.57
2023-04-15T03:40:13.444Z,1.75
2023-04-15T03:42:41.815Z,1.60
2023-04-15T03:45:10.969Z,1.90
2023-04-15T03:47:39.350Z,2.12
2023-04-15T03:50:08.474Z,1.96
2023-04-15T03:52:36.874Z,2.01
2023-04-15T03:55:05.626Z,2.00
2023-04-15T03:57:38.158Z,2.51
2023-04-15T04:00:07.847Z,2.11
2023-04-15T04:02:40.410Z,1.79
2023-04-15T04:05:09.449Z,2.20
2023-04-15T04:07:37.850Z,2.30
2023-04-15T04:10:06.974Z,2.11
2023-04-15T04:12:35.396Z,2.32
2023-04-15T04:15:04.147Z,2.44
2023-04-15T04:17:32.892Z,2.55
2023-04-15T04:20:01.320Z,1.82
2023-04-15T04:22:29.725Z,2.04
2023-04-15T04:24:59.556Z,2.89
2023-04-15T04:27:27.902Z,3.08
2023-04-15T04:29:56.506Z,3.45
2023-04-15T04:32:25.009Z,2.85
2023-04-15T04:34:53.430Z,2.84
2023-04-15T04:37:21.850Z,3.13
2023-04-15T04:39:50.366Z,2.59
2023-04-15T04:42:18.770Z,2.56
2023-04-15T04:44:47.327Z,2.69
2023-04-15T04:47:15.746Z,2.54
2023-04-15T04:49:44.174Z,1.87
2023-04-15T04:52:13.070Z,1.77
2023-04-15T04:54:41.713Z,1.88
2023-04-15T04:57:10.075Z,2.17
2023-04-15T04:59:38.388Z,2.45
2023-04-15T05:02:07.442Z,3.18
2023-04-15T05:04:37.117Z,3.28
2023-04-15T05:07:05.451Z,2.89
2023-04-15T05:09:36.216Z,2.12
2023-04-15T05:12:05.099Z,2.24
2023-04-15T05:14:33.481Z,1.87
2023-04-15T05:17:01.850Z,1.77
2023-04-15T05:19:30.494Z,2.93
2023-04-15T05:21:58.843Z,3.15
2023-04-15T05:24:27.441Z,2.91
2023-04-15T05:26:56.897Z,2.93
2023-04-15T05:29:25.232Z,2.47
2023-04-15T05:31:53.551Z,2.42
2023-04-15T05:34:21.859Z,2.80
2023-04-15T05:36:50.606Z,3.26
2023-04-15T05:39:19.018Z,3.13
2023-04-15T05:41:47.387Z,3.36
2023-04-15T05:44:15.779Z,3.88
2023-04-15T05:46:44.193Z,3.20
2023-04-15T05:49:12.592Z,3.76
2023-04-15T05:51:41.535Z,3.32
2023-04-15T05:54:09.968Z,3.37
2023-04-15T05:56:38.298Z,2.74
2023-04-15T05:59:06.780Z,3.15
2023-04-15T06:01:35.665Z,2.61
2023-04-15T06:04:04.153Z,3.24
2023-04-15T06:06:32.781Z,3.69
2023-04-15T06:09:01.325Z,3.73
2023-04-15T06:11:29.901Z,3.72
2023-04-15T06:13:58.218Z,3.84
2023-04-15T06:16:27.444Z,3.46
2023-04-15T06:18:55.903Z,2.57
2023-04-15T06:21:24.354Z,2.51
2023-04-15T06:23:53.427Z,2.72
2023-04-15T06:26:22.132Z,3.17
2023-04-15T06:28:50.700Z,3.98
2023-04-15T06:31:19.147Z,4.51
2023-04-15T06:33:47.628Z,3.80
2023-04-15T06:36:15.987Z,4.56
2023-04-15T06:38:44.349Z,3.75
2023-04-15T06:41:12.915Z,3.86
2023-04-15T06:43:41.337Z,4.55
2023-04-15T06:46:09.730Z,4.72
2023-04-15T06:48:38.209Z,4.63
2023-04-15T06:51:06.727Z,3.91
2023-04-15T06:53:35.738Z,3.92
2023-04-15T06:56:04.193Z,3.73
2023-04-15T06:58:32.542Z,4.25
2023-04-15T07:01:01.305Z,4.74
2023-04-15T07:03:31.443Z,4.59
2023-04-15T07:06:01.853Z,4.82
2023-04-15T07:08:30.652Z,5.04
2023-04-15T07:10:59.059Z,4.39
2023-04-15T07:13:27.748Z,4.13
2023-04-15T07:15:56.177Z,4.23
2023-04-15T07:18:24.578Z,4.51
2023-04-15T07:20:52.998Z,4.84
2023-04-15T07:23:21.346Z,5.18
2023-04-15T07:25:49.682Z,4.72
2023-04-15T07:28:18.399Z,4.66
2023-04-15T07:30:46.815Z,4.79
2023-04-15T07:33:17.952Z,5.15
2023-04-15T07:35:46.910Z,4.39
2023-04-15T07:38:15.240Z,4.77
2023-04-15T07:40:43.771Z,5.40
2023-04-15T07:43:13.582Z,5.79
2023-04-15T07:45:41.980Z,5.20
2023-04-15T07:48:10.322Z,5.51
2023-04-15T07:50:38.753Z,5.86
2023-04-15T07:53:07.633Z,5.40
2023-04-15T07:55:36.066Z,4.53
2023-04-15T07:58:04.568Z,5.02
2023-04-15T08:00:32.882Z,5.38
2023-04-15T08:03:01.482Z,5.23
2023-04-15T08:05:30.409Z,5.99
2023-04-15T08:07:58.858Z,5.30
2023-04-15T08:10:27.499Z,5.57
2023-04-15T08:12:56.878Z,5.51
2023-04-15T08:15:26.758Z,6.19
2023-04-15T08:17:55.165Z,6.01
2023-04-15T08:20:23.783Z,5.70
2023-04-15T08:22:52.752Z,5.31
2023-04-15T08:25:21.686Z,5.73
2023-04-15T08:27:50.127Z,5.92
2023-04-15T08:30:19.488Z,5.95
2023-04-15T08:32:48.117Z,6.17
2023-04-15T08:35:16.838Z,6.26
2023-04-15T08:37:45.395Z,6.21
2023-04-15T08:40:14.278Z,7.14
2023-04-15T08:42:48.373Z,6.79
2023-04-15T08:45:18.469Z,6.75
2023-04-15T08:47:49.470Z,6.75
2023-04-15T08:50:18.948Z,6.42
2023-04-15T08:52:47.358Z,6.65
2023-04-15T08:55:16.370Z,7.24
2023-04-15T08:57:45.047Z,7.06
2023-04-15T09:00:14.289Z,6.83
2023-04-15T09:02:43.425Z,6.59
2023-04-15T09:05:11.907Z,6.47
2023-04-15T09:07:40.206Z,6.27
2023-04-15T09:10:10.049Z,6.04
2023-04-15T09:12:38.517Z,6.26
2023-04-15T09:15:08.947Z,6.75
2023-04-15T09:17:43.263Z,6.40
2023-04-15T09:20:14.238Z,6.57
2023-04-15T09:22:43.594Z,7.07
2023-04-15T09:25:34.994Z,7.02
2023-04-15T09:28:04.260Z,7.43
2023-04-15T09:30:33.529Z,7.60
2023-04-15T09:33:03.156Z,7.47
2023-04-15T09:35:31.634Z,7.55
2023-04-15T09:38:08.072Z,7.28
2023-04-15T09:40:37.594Z,7.51
2023-04-15T09:43:07.178Z,8.28
2023-04-15T09:45:36.689Z,7.84
2023-04-15T09:48:29.110Z,6.91
2023-04-15T09:51:01.946Z,7.27
2023-04-15T09:53:34.388Z,6.98
2023-04-15T09:56:03.399Z,7.19
2023-04-15T09:58:33.747Z,7.54
2023-04-15T10:01:05.131Z,7.76
2023-04-15T10:03:37.747Z,8.18
2023-04-15T10:06:06.405Z,8.39
2023-04-15T10:08:35.073Z,8.16
2023-04-15T10:11:05.152Z,8.27
2023-04-15T10:13:36.217Z,8.46
2023-04-15T10:16:10.983Z,8.78
2023-04-15T10:18:43.412Z,8.88
2023-04-15T10:21:14.002Z,8.52
2023-04-15T10:23:42.872Z,8.24
2023-04-15T10:26:12.817Z,8.18
2023-04-15T10:28:42.190Z,8.93
2023-04-15T10:31:15.188Z,9.16
2023-04-15T10:33:44.942Z,8.70
2023-04-15T10:36:13.964Z,8.32
2023-04-15T10:38:45.779Z,8.95
2023-04-15T10:41:28.073Z,9.06
2023-04-15T10:44:04.742Z,9.78
2023-04-15T10:46:40.509Z,9.48
2023-04-15T10:49:13.261Z,9.04
2023-04-15T10:51:44.509Z,8.91
2023-04-15T10:54:26.036Z,8.96
2023-04-15T10:57:06.649Z,8.64
2023-04-15T10:59:59.719Z,8.83
2023-04-15T11:02:47.650Z,8.71
2023-04-15T11:05:17.450Z,9.13
2023-04-15T11:07:55.407Z,8.79
2023-04-15T11:10:26.637Z,9.12
2023-04-15T11:12:58.553Z,9.12
2023-04-15T11:15:33.922Z,9.68
2023-04-15T11:18:16.613Z,9.87
2023-04-15T11:20:55.024Z,9.04
2023-04-15T11:23:39.881Z,9.54
2023-04-15T11:26:11.934Z,9.99
2023-04-15T11:28:42.859Z,9.67
2023-04-15T11:31:12.400Z,9.87
2023-04-15T11:33:59.199Z,10.03
2023-04-15T11:36:32.240Z,10.36
2023-04-15T11:39:01.023Z,9.64
2023-04-15T11:41:29.490Z,9.84
2023-04-15T11:43:57.845Z,10.38
2023-04-15T11:46:31.910Z,9.80
2023-04-15T11:49:00.439Z,9.42
2023-04-15T11:51:33.555Z,9.65
2023-04-15T11:54:01.300Z,8.69
2023-04-15T11:56:29.041Z,8.43
2023-04-15T11:58:59.886Z,9.04
2023-04-15T12:01:36.567Z,9.25
2023-04-15T12:04:12.174Z,9.26
2023-04-15T12:06:39.645Z,9.71
2023-04-15T12:09:06.813Z,10.00
2023-04-15T12:11:41.675Z,8.94
2023-04-15T12:14:20.234Z,9.51
2023-04-15T12:16:58.126Z,9.70
2023-04-15T12:19:30.315Z,9.82
2023-04-15T12:22:00.993Z,9.53
2023-04-15T12:24:31.184Z,9.19
2023-04-15T12:27:03.729Z,9.49
2023-04-15T12:29:31.271Z,10.03
2023-04-15T12:32:05.147Z,9.74
2023-04-15T12:34:41.137Z,9.55
2023-04-15T12:37:10.355Z,9.48
2023-04-15T12:39:39.843Z,10.10
2023-04-15T12:42:07.831Z,9.83
2023-04-15T12:44:36.390Z,9.81
2023-04-15T12:47:03.704Z,9.97
2023-04-15T12:49:31.170Z,10.17
2023-04-15T12:52:00.297Z,10.27
2023-04-15T12:54:28.837Z,9.68
2023-04-15T12:56:56.232Z,9.78
2023-04-15T12:59:24.294Z,10.37
2023-04-15T13:01:53.515Z,9.85
2023-04-15T13:04:22.077Z,10.08
2023-04-15T13:06:49.596Z,9.57
2023-04-15T13:09:16.923Z,9.56
2023-04-15T13:11:44.185Z,9.73
2023-04-15T13:14:14.272Z,10.08
2023-04-15T13:16:41.757Z,10.47
2023-04-15T13:19:09.136Z,10.52
2023-04-15T13:21:36.806Z,10.61
2023-04-15T13:24:07.255Z,10.57
2023-04-15T13:26:34.649Z,10.91
2023-04-15T13:29:02.045Z,11.09
2023-04-15T13:31:29.261Z,10.82
2023-04-15T13:33:57.638Z,10.30
2023-04-15T13:36:24.990Z,10.52
2023-04-15T13:38:52.198Z,10.47
2023-04-15T13:41:20.203Z,10.31
2023-04-15T13:43:47.440Z,9.78
2023-04-15T13:46:14.832Z,9.84
2023-04-15T13:48:42.306Z,9.87
2023-04-15T13:51:09.723Z,9.90
2023-04-15T13:53:38.890Z,10.25
2023-04-15T13:56:08.612Z,10.47
2023-04-15T13:58:37.500Z,10.65
2023-04-15T14:01:07.005Z,10.25
2023-04-15T14:03:36.812Z,9.87
2023-04-15T14:06:05.827Z,9.87
2023-04-15T14:08:33.764Z,10.13
2023-04-15T14:11:01.339Z,9.97
2023-04-15T14:13:28.649Z,10.05
2023-04-15T14:15:57.296Z,9.94
2023-04-15T14:18:24.596Z,9.99
2023-04-15T14:20:51.966Z,9.89
2023-04-15T14:23:19.527Z,10.11
2023-04-15T14:25:48.394Z,10.05
2023-04-15T14:28:16.345Z,10.27
2023-04-15T14:30:43.847Z,9.89
2023-04-15T14:33:11.389Z,10.27
2023-04-15T14:35:39.254Z,10.22
2023-04-15T14:38:10.750Z,9.98
2023-04-15T14:40:38.306Z,9.91
2023-04-15T14:43:05.641Z,9.89
2023-04-15T14:45:32.890Z,10.25
2023-04-15T14:48:00.324Z,10.16
2023-04-15T14:50:28.279Z,10.09
2023-04-15T14:52:55.573Z,9.98
2023-04-15T14:55:22.777Z,9.97
2023-04-15T14:57:49.969Z,10.05
2023-04-15T15:00:17.226Z,10.06
2023-04-15T15:02:44.654Z,10.33
2023-04-15T15:05:12.460Z,10.01
2023-04-15T15:07:41.222Z,10.24
2023-04-15T15:10:09.053Z,10.07
2023-04-15T15:12:36.437Z,10.41
2023-04-15T15:15:15.641Z,10.60
2023-04-15T15:17:54.387Z,10.16
2023-04-15T15:20:22.137Z,10.00
2023-04-15T15:22:49.421Z,9.96
2023-04-15T15:25:16.939Z,10.21
2023-04-15T15:27:44.325Z,10.09
2023-04-15T15:30:12.039Z,9.95
2023-04-15T15:32:43.019Z,10.06
2023-04-15T15:35:11.271Z,9.84
2023-04-15T15:37:38.536Z,9.96
2023-04-15T15:40:06.703Z,9.89
2023-04-15T15:42:34.451Z,9.99
2023-04-15T15:45:03.290Z,10.16
2023-04-15T15:47:32.328Z,10.15
2023-04-15T15:50:02.634Z,10.11
2023-04-15T15:52:31.931Z,10.38
2023-04-15T15:54:59.124Z,10.20
2023-04-15T15:57:26.297Z,10.34
2023-04-15T16:00:04.839Z,10.23
2023-04-15T16:03:02.393Z,10.32
2023-04-15T16:05:25.157Z,9.83
2023-04-15T16:07:52.348Z,9.88
2023-04-15T16:10:19.521Z,9.83
2023-04-15T16:12:47.714Z,9.76
2023-04-15T16:15:15.019Z,9.85
2023-04-15T16:17:42.131Z,9.90
2023-04-15T16:20:09.879Z,9.95
2023-04-15T16:22:37.384Z,9.70
2023-04-15T16:25:04.782Z,9.78
2023-04-15T16:27:33.826Z,9.80
2023-04-15T16:30:02.786Z,9.86
2023-04-15T16:32:31.848Z,9.60
2023-04-15T16:34:59.103Z,9.57
2023-04-15T16:37:26.215Z,9.61
2023-04-15T16:39:53.356Z,9.48
2023-04-15T16:42:20.546Z,9.61
2023-04-15T16:44:47.708Z,9.60
2023-04-15T16:47:14.956Z,9.66
2023-04-15T16:49:42.176Z,9.63
2023-04-15T16:52:09.433Z,9.56
2023-04-15T16:54:41.358Z,9.54
2023-04-15T16:57:08.980Z,9.46
2023-04-15T16:59:36.129Z,9.50
2023-04-15T17:02:03.420Z,9.51
2023-04-15T17:04:30.937Z,9.42
2023-04-15T17:06:58.471Z,9.47
2023-04-15T17:09:25.596Z,9.41
2023-04-15T17:11:52.852Z,9.42
2023-04-15T17:14:20.043Z,9.35
2023-04-15T17:16:48.041Z,9.39
2023-04-15T17:19:15.364Z,9.25
2023-04-15T17:21:55.464Z,9.17
2023-04-15T17:24:24.044Z,9.21
2023-04-15T17:26:57.644Z,9.26
2023-04-15T17:29:27.179Z,9.24
2023-04-15T17:31:58.600Z,9.17
2023-04-15T17:34:50.056Z,8.94
2023-04-15T17:37:38.325Z,8.96
2023-04-15T17:40:25.379Z,9.01
2023-04-15T17:43:12.523Z,8.79
2023-04-15T17:45:59.768Z,8.59
2023-04-15T17:48:47.716Z,8.79
2023-04-15T17:51:34.746Z,8.83
2023-04-15T17:54:27.653Z,8.69
2023-04-15T17:57:14.973Z,8.84
2023-04-15T18:00:02.288Z,8.57
2023-04-15T18:02:59.628Z,8.35
2023-04-15T18:05:46.835Z,8.36
2023-04-15T18:08:33.925Z,8.05
2023-04-15T18:11:21.243Z,8.30
2023-04-15T18:14:08.311Z,8.19
2023-04-15T18:16:55.425Z,8.45
2023-04-15T18:19:43.584Z,8.19
2023-04-15T18:22:18.275Z,8.05
2023-04-15T18:24:45.447Z,8.03
2023-04-15T18:27:12.679Z,8.06
2023-04-15T18:29:39.937Z,7.94
2023-04-15T18:32:07.181Z,7.98
2023-04-15T18:34:34.500Z,7.99
2023-04-15T18:37:01.859Z,7.77
2023-04-15T18:39:29.392Z,7.83
2023-04-15T18:41:57.365Z,7.88
2023-04-15T18:44:24.547Z,7.99
2023-04-15T18:46:51.848Z,7.72
2023-04-15T18:49:19.086Z,7.79
2023-04-15T18:51:46.537Z,7.99
2023-04-15T18:54:15.005Z,8.05
2023-04-15T18:56:42.387Z,7.96
2023-04-15T18:59:28.950Z,8.09
2023-04-15T19:02:02.150Z,7.88
2023-04-15T19:04:29.860Z,7.70
2023-04-15T19:06:59.093Z,7.84
2023-04-15T19:09:26.424Z,7.88
2023-04-15T19:11:53.631Z,7.96
2023-04-15T19:14:20.993Z,8.15
2023-04-15T19:16:48.204Z,7.94
2023-04-15T19:19:15.922Z,7.91
2023-04-15T19:21:43.233Z,8.04
2023-04-15T19:24:10.435Z,7.96
2023-04-15T19:26:37.721Z,7.76
2023-04-15T19:29:05.106Z,7.70
2023-04-15T19:31:32.537Z,7.79
2023-04-15T19:34:00.739Z,7.51
2023-04-15T19:36:28.629Z,7.31
2023-04-15T19:38:55.926Z,7.49
2023-04-15T19:41:23.239Z,7.38
2023-04-15T19:43:50.658Z,7.46
2023-04-15T19:46:18.228Z,7.60
2023-04-15T19:48:45.511Z,7.68
2023-04-15T19:51:12.887Z,7.69
2023-04-15T19:53:40.978Z,7.54
2023-04-15T19:56:08.112Z,7.39
2023-04-15T19:58:35.395Z,7.52
2023-04-15T20:01:02.545Z,7.70
2023-04-15T20:03:29.910Z,7.43
2023-04-15T20:05:57.217Z,7.29
2023-04-15T20:08:24.375Z,7.58
2023-04-15T20:10:51.493Z,7.42
2023-04-15T20:13:18.670Z,7.43
2023-04-15T20:15:46.112Z,7.55
2023-04-15T20:18:13.411Z,7.35
2023-04-15T20:20:41.030Z,7.30
2023-04-15T20:23:08.211Z,7.29
2023-04-15T20:25:35.449Z,7.22
2023-04-15T20:28:02.804Z,7.33
2023-04-15T20:30:29.934Z,7.30
2023-04-15T20:32:57.519Z,7.06
2023-04-15T20:35:28.207Z,7.14
2023-04-15T20:37:55.516Z,7.40
2023-04-15T20:40:23.137Z,7.22
2023-04-15T20:42:50.247Z,7.46
2023-04-15T20:45:17.693Z,7.44
2023-04-15T20:47:45.029Z,7.31
2023-04-15T20:50:12.293Z,7.26
2023-04-15T20:52:40.164Z,7.34
2023-04-15T20:55:08.079Z,7.37
2023-04-15T20:57:35.560Z,7.19
2023-04-15T21:00:02.903Z,7.40
2023-04-15T21:02:33.049Z,7.57
2023-04-15T21:05:00.589Z,7.37
2023-04-15T21:07:27.904Z,7.57
2023-04-15T21:09:57.995Z,7.32
2023-04-15T21:12:25.257Z,7.38
2023-04-15T21:14:52.561Z,7.32
2023-04-15T21:17:19.761Z,7.49
2023-04-15T21:19:47.004Z,7.37
2023-04-15T21:22:14.255Z,7.31
2023-04-15T21:24:41.396Z,7.19
2023-04-15T21:27:09.992Z,7.44
2023-04-15T21:29:40.290Z,7.09
2023-04-15T21:32:07.692Z,7.02
2023-04-15T21:34:35.027Z,7.23
2023-04-15T21:37:02.459Z,7.43
2023-04-15T21:39:29.747Z,7.34
2023-04-15T21:41:58.012Z,7.21
2023-04-15T21:44:25.381Z,7.31
2023-04-15T21:46:52.733Z,7.46
2023-04-15T21:49:20.564Z,7.41
2023-04-15T21:51:48.250Z,7.32
2023-04-15T21:54:15.811Z,7.26
2023-04-15T21:56:43.250Z,7.30
2023-04-15T21:59:10.475Z,7.36
2023-04-15T22:01:37.833Z,7.39
2023-04-15T22:04:07.546Z,7.18
2023-04-15T22:06:34.956Z,6.93
2023-04-15T22:09:02.150Z,6.32
2023-04-15T22:11:30.981Z,6.63
2023-04-15T22:13:59.172Z,6.85
2023-04-15T22:16:27.092Z,6.88
2023-04-15T22:18:55.626Z,6.90
2023-04-15T22:21:23.300Z,6.99
2023-04-15T22:23:51.479Z,7.12
2023-04-15T22:26:18.679Z,7.06
2023-04-15T22:28:45.863Z,7.09
2023-04-15T22:31:13.835Z,6.91
2023-04-15T22:33:41.059Z,6.76
2023-04-15T22:36:08.276Z,6.89
2023-04-15T22:38:36.240Z,6.99
2023-04-15T22:41:03.486Z,6.98
2023-04-15T22:43:30.645Z,6.84
2023-04-15T22:45:57.947Z,6.75
2023-04-15T22:48:25.138Z,6.34
2023-04-15T22:50:52.795Z,6.59
2023-04-15T22:53:20.202Z,6.67
2023-04-15T22:55:48.343Z,6.83
2023-04-15T22:58:18.393Z,6.82
2023-04-15T23:00:46.200Z,6.76
2023-04-15T23:03:13.561Z,6.69
2023-04-15T23:05:41.440Z,6.47
2023-04-15T23:08:08.798Z,6.57
2023-04-15T23:10:36.009Z,6.69
2023-04-15T23:13:03.172Z,6.39
2023-04-15T23:15:30.416Z,6.23
2023-04-15T23:17:57.806Z,6.54
2023-04-15T23:20:24.991Z,6.68
2023-04-15T23:22:52.140Z,6.77
2023-04-15T23:25:22.349Z,6.76
2023-04-15T23:27:49.645Z,6.70
2023-04-15T23:30:16.909Z,6.62
2023-04-15T23:32:44.083Z,6.59
2023-04-15T23:35:11.377Z,6.63
2023-04-15T23:37:38.659Z,6.32
2023-04-15T23:40:06.662Z,6.36
2023-04-15T23:42:33.885Z,6.26
2023-04-15T23:45:01.018Z,6.37
2023-04-15T23:47:28.392Z,6.47
2023-04-15T23:49:55.582Z,6.58
2023-04-15T23:52:23.012Z,6.57
2023-04-15T23:54:50.412Z,6.47
2023-04-15T23:57:18.824Z,6.47
2023-04-15T23:59:46.321Z,6.27
